Time;durP1;ratioP1;P1;durP2;ratioP2;P2;SDS_P1;SDS_P2;PMS_P1;PMS_P2;Temp;Humidity;BMP_temperature;BMP_pressure;BME280_temperature;BME280_humidity;BME280_pressure;Samples;Min_cycle;Max_cycle;Signal;HPM_P1;HPM_P2
2023/12/31 00:00:41;;;;;;;;;;;8.00;99.90;;;;;;5072740;28;20006;-84
2023/12/31 00:03:06;;;;;;;;;;;8.00;99.90;;;;;;5064792;28;19930;-85
2023/12/31 00:05:33;;;;;;;;;;;8.00;99.90;;;;;;5067188;28;19920;-86
2023/12/31 00:07:59;;;;;;;;;;;8.00;99.90;;;;;;5045645;28;19920;-85
2023/12/31 00:10:24;;;;;;;;;;;8.00;99.90;;;;;;5077477;28;20227;-86
2023/12/31 00:12:50;;;;;;;;;;;8.00;99.90;;;;;;5060023;28;19923;-85
2023/12/31 00:15:16;;;;;;;;;;;8.00;99.90;;;;;;5091893;28;19973;-83
2023/12/31 00:17:41;;;;;;;;;;;7.90;99.90;;;;;;5065506;28;19981;-86
2023/12/31 00:20:07;;;;;;;;;;;8.00;99.90;;;;;;5046633;28;20032;-84
2023/12/31 00:22:33;;;;;;;;;;;8.00;99.90;;;;;;5055041;28;20307;-85
2023/12/31 00:24:58;;;;;;;;;;;8.00;99.90;;;;;;5069035;28;20252;-89
2023/12/31 00:27:24;;;;;;;;;;;8.00;99.90;;;;;;5068755;28;19967;-84
2023/12/31 00:29:50;;;;;;;;;;;8.10;99.90;;;;;;5056934;28;19931;-84
2023/12/31 00:32:15;;;;;;;;;;;8.10;99.90;;;;;;5057256;28;19928;-84
2023/12/31 00:34:41;;;;;;;;;;;8.10;99.90;;;;;;5063382;28;19923;-87
2023/12/31 00:37:10;;;;;;;;;;;8.10;99.90;;;;;;5069148;28;20032;-85
2023/12/31 00:39:35;;;;;;;;;;;9.60;99.90;;;;;;5049643;28;20357;-85
2023/12/31 00:42:01;;;;;;;;;;;8.10;99.90;;;;;;5085443;28;20206;-88
2023/12/31 00:44:26;;;;;;;;;;;8.10;99.90;;;;;;5083997;28;19955;-88
2023/12/31 00:46:52;;;;;;;;;;;8.40;99.90;;;;;;5073810;28;19926;-86
2023/12/31 00:49:18;;;;;;;;;;;8.10;99.90;;;;;;5055949;28;19920;-85
2023/12/31 00:51:44;;;;;;;;;;;8.10;99.90;;;;;;5090554;28;20265;-86
2023/12/31 00:54:09;;;;;;;;;;;8.20;99.90;;;;;;5067289;28;19920;-86
2023/12/31 00:56:35;;;;;;;;;;;8.10;99.90;;;;;;5065685;28;20268;-84
2023/12/31 00:59:04;;;;;;;;;;;8.10;99.90;;;;;;5050083;28;20315;-84
2023/12/31 01:01:29;;;;;;;;;;;8.10;99.90;;;;;;5055439;28;20357;-85
2023/12/31 01:03:55;;;;;;;;;;;8.10;99.90;;;;;;5055190;28;19924;-87
2023/12/31 01:06:21;;;;;;;;;;;8.10;99.90;;;;;;5086326;28;20062;-87
2023/12/31 01:08:46;;;;;;;;;;;8.10;99.90;;;;;;5070793;28;20201;-85
2023/12/31 01:11:12;;;;;;;;;;;8.10;99.90;;;;;;5093318;28;20007;-87
2023/12/31 01:13:38;;;;;;;;;;;8.10;99.90;;;;;;5061091;28;19927;-85
2023/12/31 01:16:04;;;;;;;;;;;8.10;99.90;;;;;;5101755;28;19994;-87
2023/12/31 01:18:30;;;;;;;;;;;8.10;99.90;;;;;;5091864;28;19924;-84
2023/12/31 01:20:56;;;;;;;;;;;8.00;99.90;;;;;;5077728;28;20001;-83
2023/12/31 01:23:21;;;;;;;;;;;8.00;99.90;;;;;;5078195;28;20280;-86
2023/12/31 01:25:47;;;;;;;;;;;9.10;99.90;;;;;;5078032;28;20249;-86
2023/12/31 01:28:13;;;;;;;;;;;8.00;99.90;;;;;;5058749;28;19924;-85
2023/12/31 01:30:39;;;;;;;;;;;6.90;99.90;;;;;;5077676;28;20314;-86
2023/12/31 01:33:05;;;;;;;;;;;7.90;99.90;;;;;;5076910;28;19924;-85
2023/12/31 01:35:30;;;;;;;;;;;8.00;99.90;;;;;;5086287;28;20249;-88
2023/12/31 01:37:56;;;;;;;;;;;8.00;99.90;;;;;;5062381;28;19919;-85
2023/12/31 01:40:21;;;;;;;;;;;8.00;99.90;;;;;;5061907;28;19919;-84
2023/12/31 01:42:47;;;;;;;;;;;8.00;99.90;;;;;;5094314;28;19943;-86
2023/12/31 01:45:13;;;;;;;;;;;8.00;99.90;;;;;;5058748;28;19920;-85
2023/12/31 01:47:39;;;;;;;;;;;7.90;99.90;;;;;;5106598;28;20265;-86
2023/12/31 01:50:05;;;;;;;;;;;7.90;99.90;;;;;;5053344;28;19930;-86
2023/12/31 01:52:34;;;;;;;;;;;7.80;99.90;;;;;;5099366;28;19924;-86
2023/12/31 01:55:03;;;;;;;;;;;7.80;99.90;;;;;;5058391;28;19935;-86
2023/12/31 01:57:30;;;;;;;;;;;7.80;99.90;;;;;;5063319;28;19928;-84
2023/12/31 01:59:55;;;;;;;;;;;7.70;99.90;;;;;;5076677;28;19977;-83
2023/12/31 02:02:21;;;;;;;;;;;7.80;99.90;;;;;;5069743;28;20411;-85
2023/12/31 02:04:47;;;;;;;;;;;7.70;99.90;;;;;;5114969;27;19927;-85
2023/12/31 02:07:13;;;;;;;;;;;7.70;99.90;;;;;;5069948;28;20069;-86
2023/12/31 02:09:39;;;;;;;;;;;7.60;99.90;;;;;;5066767;28;20069;-87
2023/12/31 02:12:05;;;;;;;;;;;7.60;99.90;;;;;;5087871;28;19923;-87
2023/12/31 02:14:30;;;;;;;;;;;7.60;99.90;;;;;;5087048;28;19920;-85
2023/12/31 02:16:56;;;;;;;;;;;7.50;99.90;;;;;;5080135;28;19930;-84
2023/12/31 02:19:23;;;;;;;;;;;7.50;99.90;;;;;;5082880;28;19920;-85
2023/12/31 02:21:48;;;;;;;;;;;7.40;99.90;;;;;;5074844;28;19947;-88
2023/12/31 02:24:15;;;;;;;;;;;7.30;99.90;;;;;;5063203;28;19920;-86
2023/12/31 02:26:40;;;;;;;;;;;7.30;99.90;;;;;;5069972;28;19920;-87
2023/12/31 02:29:06;;;;;;;;;;;7.30;99.90;;;;;;5072308;28;20273;-86
2023/12/31 02:31:34;;;;;;;;;;;7.30;99.90;;;;;;5107528;28;19923;-86
2023/12/31 02:33:59;;;;;;;;;;;7.30;99.90;;;;;;5077964;28;19959;-86
2023/12/31 02:36:25;;;;;;;;;;;7.30;99.90;;;;;;5093204;28;19977;-88
2023/12/31 02:38:51;;;;;;;;;;;7.30;99.90;;;;;;5068566;28;19984;-85
2023/12/31 02:41:16;;;;;;;;;;;7.20;99.90;;;;;;5067392;28;19927;-89
2023/12/31 02:43:42;;;;;;;;;;;7.30;99.90;;;;;;5070499;28;19926;-84
2023/12/31 02:46:08;;;;;;;;;;;7.30;99.90;;;;;;5059421;28;19967;-87
2023/12/31 02:48:33;;;;;;;;;;;7.30;99.90;;;;;;5058777;28;19923;-87
2023/12/31 02:50:59;;;;;;;;;;;7.30;99.90;;;;;;5091766;28;20072;-84
2023/12/31 02:53:24;;;;;;;;;;;7.20;99.90;;;;;;5070233;28;20368;-85
2023/12/31 02:55:50;;;;;;;;;;;7.30;99.90;;;;;;5105219;28;19924;-85
2023/12/31 02:58:16;;;;;;;;;;;7.20;99.90;;;;;;5057188;28;19991;-86
2023/12/31 03:00:41;;;;;;;;;;;7.20;99.90;;;;;;5100282;28;19931;-84
2023/12/31 03:03:07;;;;;;;;;;;7.20;99.90;;;;;;5101905;28;19920;-85
2023/12/31 03:05:33;;;;;;;;;;;7.20;99.90;;;;;;5072312;28;20170;-84
2023/12/31 03:07:59;;;;;;;;;;;7.20;99.90;;;;;;5060274;28;19927;-85
2023/12/31 03:10:25;;;;;;;;;;;7.20;99.90;;;;;;5070551;28;19920;-86
2023/12/31 03:12:50;;;;;;;;;;;7.20;99.90;;;;;;5063927;28;19924;-85
2023/12/31 03:15:16;;;;;;;;;;;7.20;99.90;;;;;;5106484;28;19981;-87
2023/12/31 03:17:41;;;;;;;;;;;7.20;99.90;;;;;;5071476;28;19924;-87
2023/12/31 03:20:08;;;;;;;;;;;7.60;99.90;;;;;;5066320;28;20246;-85
2023/12/31 03:22:33;;;;;;;;;;;7.20;99.90;;;;;;5071318;28;20015;-86
2023/12/31 03:24:59;;;;;;;;;;;7.10;99.90;;;;;;5077076;28;20392;-85
2023/12/31 03:27:25;;;;;;;;;;;7.20;99.90;;;;;;5063425;28;19930;-88
2023/12/31 03:29:50;;;;;;;;;;;7.10;99.90;;;;;;5066876;28;19930;-85
2023/12/31 03:32:16;;;;;;;;;;;7.10;99.90;;;;;;5056332;28;20011;-83
2023/12/31 03:34:41;;;;;;;;;;;7.10;99.90;;;;;;5105960;28;19924;-86
2023/12/31 03:37:08;;;;;;;;;;;;;;;;;;5075367;28;19951;-89
2023/12/31 03:39:34;;;;;;;;;;;7.10;99.90;;;;;;5098969;28;20279;-87
2023/12/31 03:41:59;;;;;;;;;;;7.10;99.90;;;;;;5067881;28;19924;-85
2023/12/31 03:44:25;;;;;;;;;;;7.10;99.90;;;;;;5058275;28;20365;-88
2023/12/31 03:46:50;;;;;;;;;;;7.10;99.90;;;;;;5052982;28;19920;-85
2023/12/31 03:49:16;;;;;;;;;;;7.10;99.90;;;;;;5052825;28;19920;-88
2023/12/31 03:51:42;;;;;;;;;;;7.10;99.90;;;;;;5068712;28;19923;-87
2023/12/31 03:54:09;;;;;;;;;;;7.10;99.90;;;;;;5108400;28;20436;-87
2023/12/31 03:56:35;;;;;;;;;;;7.10;99.90;;;;;;5054136;28;20281;-88
2023/12/31 03:59:01;;;;;;;;;;;7.20;99.90;;;;;;5095638;28;19935;-90
2023/12/31 04:01:26;;;;;;;;;;;7.20;99.90;;;;;;5108386;28;19924;-84
2023/12/31 04:03:52;;;;;;;;;;;7.20;99.90;;;;;;5081751;28;19929;-89
2023/12/31 04:06:17;;;;;;;;;;;7.20;99.90;;;;;;5126778;27;19927;-88
2023/12/31 04:08:43;;;;;;;;;;;7.20;99.90;;;;;;5107284;28;19959;-88
2023/12/31 04:11:08;;;;;;;;;;;7.20;99.90;;;;;;5113968;28;19981;-86
2023/12/31 04:13:34;;;;;;;;;;;7.30;99.90;;;;;;5094758;28;19920;-87
2023/12/31 04:16:00;;;;;;;;;;;7.40;99.90;;;;;;5128902;28;20251;-88
2023/12/31 04:18:25;;;;;;;;;;;7.30;99.90;;;;;;5099593;28;19939;-87
2023/12/31 04:20:51;;;;;;;;;;;7.80;99.90;;;;;;5123009;28;20405;-87
2023/12/31 04:23:16;;;;;;;;;;;7.40;99.90;;;;;;5107298;28;19920;-89
2023/12/31 04:25:42;;;;;;;;;;;7.40;99.90;;;;;;5086670;28;19920;-87
2023/12/31 04:28:08;;;;;;;;;;;7.30;99.90;;;;;;5093269;28;20229;-86
2023/12/31 04:30:33;;;;;;;;;;;7.30;99.90;;;;;;5112233;28;19919;-88
2023/12/31 04:32:59;;;;;;;;;;;7.30;99.90;;;;;;5129130;28;19953;-87
2023/12/31 04:35:24;;;;;;;;;;;7.30;99.90;;;;;;5099372;28;19919;-85
2023/12/31 04:37:50;;;;;;;;;;;7.30;99.90;;;;;;5108561;28;19926;-88
2023/12/31 04:40:15;;;;;;;;;;;7.30;99.90;;;;;;5095403;28;20400;-88
2023/12/31 04:42:41;;;;;;;;;;;7.30;99.90;;;;;;5110411;28;19920;-87
2023/12/31 04:45:09;;;;;;;;;;;7.30;99.90;;;;;;5128981;27;20026;-86
2023/12/31 04:47:35;;;;;;;;;;;7.30;99.90;;;;;;5126407;27;19919;-88
2023/12/31 04:50:00;;;;;;;;;;;7.40;99.90;;;;;;5080992;28;20007;-87
2023/12/31 04:52:26;;;;;;;;;;;7.40;99.90;;;;;;5132096;27;19927;-87
2023/12/31 04:54:52;;;;;;;;;;;7.30;99.90;;;;;;5123346;27;19920;-90
2023/12/31 04:57:17;;;;;;;;;;;7.30;99.90;;;;;;5126048;27;19923;-89
2023/12/31 04:59:43;;;;;;;;;;;7.40;99.90;;;;;;5060132;28;19931;-87
2023/12/31 05:02:09;;;;;;;;;;;7.40;99.90;;;;;;5106689;28;20287;-91
2023/12/31 05:04:34;;;;;;;;;;;7.40;99.90;;;;;;5107041;28;20272;-89
2023/12/31 05:07:00;;;;;;;;;;;7.40;99.90;;;;;;5095810;28;20002;-90
2023/12/31 05:09:25;;;;;;;;;;;7.30;99.90;;;;;;5096494;28;19954;-90
2023/12/31 05:11:51;;;;;;;;;;;7.40;99.90;;;;;;5117679;27;19934;-90
2023/12/31 05:14:17;;;;;;;;;;;7.40;99.90;;;;;;5095645;28;20019;-87
2023/12/31 05:16:42;;;;;;;;;;;7.40;99.90;;;;;;5084162;28;19931;-84
2023/12/31 05:19:08;;;;;;;;;;;7.40;99.90;;;;;;5102050;28;19924;-89
2023/12/31 05:21:34;;;;;;;;;;;7.40;99.90;;;;;;5105157;28;19920;-87
2023/12/31 05:24:00;;;;;;;;;;;7.40;99.90;;;;;;5092478;28;19926;-88
2023/12/31 05:26:25;;;;;;;;;;;7.40;99.90;;;;;;5099099;28;19924;-90
2023/12/31 05:28:52;;;;;;;;;;;7.40;99.90;;;;;;5117167;27;19931;-85
2023/12/31 05:31:18;;;;;;;;;;;7.40;99.90;;;;;;5092360;28;19927;-91
2023/12/31 05:33:44;;;;;;;;;;;7.50;99.90;;;;;;5111381;28;20365;-87
2023/12/31 05:36:11;;;;;;;;;;;7.40;99.90;;;;;;5078441;28;19920;-86
2023/12/31 05:38:36;;;;;;;;;;;7.40;99.90;;;;;;5069488;28;19920;-87
2023/12/31 05:41:02;;;;;;;;;;;7.40;99.90;;;;;;5093223;28;20342;-89
2023/12/31 05:43:27;;;;;;;;;;;7.40;99.90;;;;;;5095050;28;19976;-86
2023/12/31 05:45:53;;;;;;;;;;;7.50;99.90;;;;;;5110443;28;19920;-88
2023/12/31 05:48:19;;;;;;;;;;;7.50;99.90;;;;;;5092842;28;19920;-86
2023/12/31 05:50:46;;;;;;;;;;;7.50;99.90;;;;;;5093356;28;20214;-87
2023/12/31 05:53:12;;;;;;;;;;;7.50;99.90;;;;;;5053614;28;20266;-87
2023/12/31 05:55:37;;;;;;;;;;;7.50;99.90;;;;;;5081650;28;19953;-87
2023/12/31 05:58:03;;;;;;;;;;;7.50;99.90;;;;;;5056737;28;20474;-89
2023/12/31 06:00:28;;;;;;;;;;;7.50;99.90;;;;;;5074577;28;19919;-90
2023/12/31 06:02:55;;;;;;;;;;;7.50;99.90;;;;;;5069130;28;19920;-89
2023/12/31 06:05:21;;;;;;;;;;;7.50;99.90;;;;;;5062124;28;19985;-88
2023/12/31 06:07:46;;;;;;;;;;;8.70;99.90;;;;;;5067863;28;19920;-87
2023/12/31 06:10:12;;;;;;;;;;;7.50;99.90;;;;;;5089382;28;20334;-90
2023/12/31 06:12:38;;;;;;;;;;;7.50;99.90;;;;;;5065177;28;19923;-89
2023/12/31 06:15:06;;;;;;;;;;;7.50;99.90;;;;;;5096067;28;19927;-86
2023/12/31 06:17:35;;;;;;;;;;;7.60;99.90;;;;;;5082138;28;19920;-86
2023/12/31 06:20:02;;;;;;;;;;;7.60;99.90;;;;;;5079260;28;19920;-88
2023/12/31 06:22:27;;;;;;;;;;;7.60;99.90;;;;;;5056373;28;19930;-86
2023/12/31 06:24:53;;;;;;;;;;;7.60;99.90;;;;;;5078072;28;20353;-86
2023/12/31 06:27:19;;;;;;;;;;;7.60;99.90;;;;;;5059534;28;19932;-86
2023/12/31 06:29:44;;;;;;;;;;;7.60;99.90;;;;;;5083175;28;19930;-87
2023/12/31 06:32:10;;;;;;;;;;;7.60;99.90;;;;;;5058099;28;19935;-90
2023/12/31 06:34:35;;;;;;;;;;;7.60;99.90;;;;;;5079049;28;20018;-85
2023/12/31 06:37:01;;;;;;;;;;;7.70;99.90;;;;;;5097399;28;19924;-85
2023/12/31 06:39:27;;;;;;;;;;;7.60;99.90;;;;;;5082257;28;20349;-88
2023/12/31 06:41:52;;;;;;;;;;;7.70;99.90;;;;;;5055210;28;20400;-89
2023/12/31 06:44:18;;;;;;;;;;;7.60;99.90;;;;;;5069852;28;19920;-87
2023/12/31 06:46:43;;;;;;;;;;;7.60;99.90;;;;;;5098329;28;19924;-88
2023/12/31 06:49:09;;;;;;;;;;;7.60;99.90;;;;;;5058812;28;19924;-90
2023/12/31 06:51:35;;;;;;;;;;;7.60;99.90;;;;;;5108510;28;19983;-89
2023/12/31 06:54:00;;;;;;;;;;;7.70;99.90;;;;;;5096073;28;19920;-90
2023/12/31 06:56:26;;;;;;;;;;;7.70;99.90;;;;;;5121189;27;19927;-87
2023/12/31 06:58:51;;;;;;;;;;;7.70;99.90;;;;;;5077498;28;20273;-86
2023/12/31 07:01:17;;;;;;;;;;;7.70;99.90;;;;;;5103459;28;19928;-87
2023/12/31 07:03:43;;;;;;;;;;;7.70;99.90;;;;;;5092232;28;19930;-88
2023/12/31 07:06:08;;;;;;;;;;;7.70;99.90;;;;;;5074190;28;20101;-87
2023/12/31 07:08:34;;;;;;;;;;;7.70;99.90;;;;;;5116019;27;19969;-89
2023/12/31 07:11:00;;;;;;;;;;;7.70;99.90;;;;;;5093710;28;19968;-89
2023/12/31 07:13:26;;;;;;;;;;;7.70;99.90;;;;;;5087647;28;19947;-87
2023/12/31 07:15:51;;;;;;;;;;;7.70;99.90;;;;;;5106075;28;20036;-87
2023/12/31 07:18:17;;;;;;;;;;;7.70;99.90;;;;;;5090161;28;20038;-88
2023/12/31 07:20:43;;;;;;;;;;;7.70;99.90;;;;;;5074282;28;19921;-86
2023/12/31 07:23:08;;;;;;;;;;;7.70;99.90;;;;;;5100364;28;19991;-89
2023/12/31 07:25:35;;;;;;;;;;;7.80;99.90;;;;;;5083150;28;20405;-89
2023/12/31 07:28:01;;;;;;;;;;;7.80;99.90;;;;;;5092639;28;19926;-86
2023/12/31 07:30:27;;;;;;;;;;;7.80;99.90;;;;;;5081322;27;19927;-88
2023/12/31 07:32:53;;;;;;;;;;;7.80;99.90;;;;;;5105798;27;20434;-89
2023/12/31 07:35:18;;;;;;;;;;;7.80;99.90;;;;;;5117305;27;19970;-86
2023/12/31 07:37:44;;;;;;;;;;;7.90;99.90;;;;;;5085417;28;20309;-86
2023/12/31 07:40:10;;;;;;;;;;;7.90;99.90;;;;;;5087003;28;19929;-92
2023/12/31 07:42:39;;;;;;;;;;;7.90;99.90;;;;;;5074153;28;19927;-90
2023/12/31 07:45:05;;;;;;;;;;;7.90;99.90;;;;;;5073521;28;19920;-86
2023/12/31 07:47:31;;;;;;;;;;;7.90;99.90;;;;;;5097205;28;20173;-91
2023/12/31 07:49:57;;;;;;;;;;;7.90;99.90;;;;;;5079775;28;19929;-88
2023/12/31 07:52:25;;;;;;;;;;;7.90;99.90;;;;;;5072222;28;19928;-86
2023/12/31 07:54:50;;;;;;;;;;;7.90;99.90;;;;;;5094248;28;19970;-90
2023/12/31 07:57:16;;;;;;;;;;;7.90;99.90;;;;;;5090141;28;19963;-88
2023/12/31 07:59:42;;;;;;;;;;;8.00;99.90;;;;;;5105778;28;19946;-86
2023/12/31 08:02:08;;;;;;;;;;;8.00;99.90;;;;;;5083012;28;20348;-86
2023/12/31 08:04:34;;;;;;;;;;;8.00;99.90;;;;;;5066945;28;19951;-89
2023/12/31 08:06:59;;;;;;;;;;;8.10;99.90;;;;;;5068878;28;19924;-85
2023/12/31 08:09:25;;;;;;;;;;;8.10;99.90;;;;;;5104373;28;20003;-90
2023/12/31 08:11:51;;;;;;;;;;;8.10;99.90;;;;;;5069635;28;19924;-88
2023/12/31 08:14:16;;;;;;;;;;;8.10;99.90;;;;;;5091513;28;20332;-89
2023/12/31 08:16:42;;;;;;;;;;;8.20;99.90;;;;;;5118443;28;20265;-87
2023/12/31 08:19:07;;;;;;;;;;;8.20;99.90;;;;;;5092426;28;19920;-90
2023/12/31 08:21:33;;;;;;;;;;;8.20;99.90;;;;;;5070340;28;19951;-88
2023/12/31 08:23:59;;;;;;;;;;;8.20;99.90;;;;;;5094804;28;20261;-91
2023/12/31 08:26:25;;;;;;;;;;;8.20;99.90;;;;;;5085813;28;20022;-90
2023/12/31 08:28:50;;;;;;;;;;;8.20;99.90;;;;;;5070666;27;20002;-88
2023/12/31 08:31:17;;;;;;;;;;;8.20;99.90;;;;;;5096242;28;19928;-86
2023/12/31 08:33:45;;;;;;;;;;;8.20;99.90;;;;;;5112372;27;19927;-89
2023/12/31 08:36:11;;;;;;;;;;;8.30;99.90;;;;;;5093040;28;20288;-87
2023/12/31 08:38:37;;;;;;;;;;;8.20;99.90;;;;;;5085998;27;19931;-89
2023/12/31 08:41:03;;;;;;;;;;;8.10;99.90;;;;;;5104139;27;19931;-89
2023/12/31 08:43:28;;;;;;;;;;;8.20;99.90;;;;;;5092147;28;20345;-87
2023/12/31 08:45:54;;;;;;;;;;;8.20;99.90;;;;;;5077417;28;19999;-88
2023/12/31 08:48:20;;;;;;;;;;;8.20;99.90;;;;;;5074349;28;19920;-92
2023/12/31 08:50:46;;;;;;;;;;;8.20;99.90;;;;;;5117644;27;20249;-90
2023/12/31 08:53:11;;;;;;;;;;;8.20;99.90;;;;;;5104033;27;20011;-89
2023/12/31 08:55:40;;;;;;;;;;;8.20;99.90;;;;;;5096074;28;20026;-91
2023/12/31 08:58:06;;;;;;;;;;;8.20;99.90;;;;;;5087696;28;20435;-86
2023/12/31 09:00:31;;;;;;;;;;;8.20;99.90;;;;;;5110562;28;19928;-91
2023/12/31 09:02:57;;;;;;;;;;;8.20;99.90;;;;;;5076953;28;19926;-89
2023/12/31 09:05:23;;;;;;;;;;;8.20;99.90;;;;;;5072277;28;20388;-90
2023/12/31 09:07:48;;;;;;;;;;;8.30;99.90;;;;;;5093178;28;19971;-90
2023/12/31 09:10:14;;;;;;;;;;;8.30;99.90;;;;;;5093408;28;19936;-93
2023/12/31 09:12:40;;;;;;;;;;;8.30;99.90;;;;;;5070317;28;19923;-90
2023/12/31 09:15:06;;;;;;;;;;;8.30;99.90;;;;;;5091239;28;19930;-91
2023/12/31 09:17:32;;;;;;;;;;;8.30;99.90;;;;;;5075571;28;19935;-87
2023/12/31 09:19:58;;;;;;;;;;;8.30;99.90;;;;;;5084354;28;19927;-90
2023/12/31 09:22:23;;;;;;;;;;;8.40;99.90;;;;;;5114387;28;20265;-88
2023/12/31 09:24:51;;;;;;;;;;;8.40;99.90;;;;;;5080827;28;20319;-87
2023/12/31 09:27:17;;;;;;;;;;;8.50;99.90;;;;;;5112542;27;20362;-88
2023/12/31 09:29:43;;;;;;;;;;;8.50;99.90;;;;;;5094293;28;20023;-89
2023/12/31 09:32:08;;;;;;;;;;;8.50;99.90;;;;;;5120792;27;20027;-89
2023/12/31 09:34:35;;;;;;;;;;;;;;;;;;5076863;28;19930;-86
2023/12/31 09:37:00;;;;;;;;;;;8.60;99.90;;;;;;5091187;28;20015;-91
2023/12/31 09:39:26;;;;;;;;;;;7.60;99.90;;;;;;5101932;28;19970;-89
2023/12/31 09:41:52;;;;;;;;;;;;;;;;;;5076419;28;19931;-90
2023/12/31 09:44:19;;;;;;;;;;;8.70;99.90;;;;;;5089452;28;19920;-86
2023/12/31 09:46:50;;;;;;;;;;;8.70;99.90;;;;;;5077430;27;19919;-88
2023/12/31 09:49:16;;;;;;;;;;;8.80;99.90;;;;;;5112189;27;20152;-89
2023/12/31 09:51:42;;;;;;;;;;;8.80;99.90;;;;;;5106542;28;20026;-88
2023/12/31 09:54:07;;;;;;;;;;;8.90;99.90;;;;;;5083137;27;19919;-84
2023/12/31 09:56:33;;;;;;;;;;;8.90;99.90;;;;;;5064502;28;19955;-90
2023/12/31 09:58:59;;;;;;;;;;;8.90;99.90;;;;;;5088444;28;20292;-90
2023/12/31 10:01:25;;;;;;;;;;;;;;;;;;5092281;28;19981;-90
2023/12/31 10:03:51;;;;;;;;;;;;;;;;;;5098493;27;19931;-93
2023/12/31 10:06:17;;;;;;;;;;;;;;;;;;5086901;27;19927;-90
2023/12/31 10:08:43;;;;;;;;;;;;;;;;;;5137596;27;20011;-91
2023/12/31 10:11:09;;;;;;;;;;;;;;;;;;5086682;27;19939;-89
2023/12/31 10:13:35;;;;;;;;;;;;;;;;;;5087558;27;20357;-91
2023/12/31 10:16:01;;;;;;;;;;;;;;;;;;5072015;27;19928;-94
2023/12/31 10:18:27;;;;;;;;;;;;;;;;;;5103328;27;20230;-91
2023/12/31 10:20:53;;;;;;;;;;;;;;;;;;5071327;28;20065;-88
2023/12/31 10:23:19;;;;;;;;;;;;;;;;;;5073986;27;19931;-88
2023/12/31 10:25:45;;;;;;;;;;;;;;;;;;5098983;28;19943;-86
2023/12/31 10:28:11;;;;;;;;;;;;;;;;;;5100791;27;20383;-90
2023/12/31 10:30:37;;;;;;;;;;;;;;;;;;5084547;28;19927;-90
2023/12/31 10:33:03;;;;;;;;;;;;;;;;;;5088014;28;20443;-87
2023/12/31 10:35:29;;;;;;;;;;;;;;;;;;5068096;28;19920;-91
2023/12/31 10:37:55;;;;;;;;;;;;;;;;;;5105555;27;20362;-88
2023/12/31 10:40:24;;;;;;;;;;;;;;;;;;5096566;28;20344;-91
2023/12/31 10:42:52;;;;;;;;;;;;;;;;;;5062958;28;20350;-92
2023/12/31 10:45:18;;;;;;;;;;;;;;;;;;5064594;28;19931;-90
2023/12/31 10:47:47;;;;;;;;;;;;;;;;;;5074402;28;19919;-88
2023/12/31 10:50:13;;;;;;;;;;;;;;;;;;5070687;28;19954;-90
2023/12/31 10:52:42;;;;;;;;;;;;;;;;;;5064037;28;19974;-91
2023/12/31 10:55:12;;;;;;;;;;;;;;;;;;5097290;28;20236;-88
2023/12/31 10:57:38;;;;;;;;;;;;;;;;;;5065443;28;19923;-91
2023/12/31 11:00:04;;;;;;;;;;;;;;;;;;5072476;28;19924;-91
2023/12/31 11:02:30;;;;;;;;;;;;;;;;;;5079277;28;19920;-92
2023/12/31 11:04:56;;;;;;;;;;;;;;;;;;5064653;27;19975;-90
2023/12/31 11:07:22;;;;;;;;;;;;;;;;;;5113429;27;20169;-90
2023/12/31 11:09:52;;;;;;;;;;;;;;;;;;5088994;28;19977;-92
2023/12/31 11:12:18;;;;;;;;;;;;;;;;;;5082911;28;19931;-90
2023/12/31 11:14:44;;;;;;;;;;;;;;;;;;5101908;28;19975;-89
2023/12/31 11:17:10;;;;;;;;;;;;;;;;;;5099705;28;19920;-91
2023/12/31 11:19:36;;;;;;;;;;;;;;;;;;5075821;28;20275;-92
2023/12/31 11:22:02;;;;;;;;;;;;;;;;;;5086651;27;20006;-91
2023/12/31 11:24:28;;;;;;;;;;;;;;;;;;5078225;28;20410;-90
2023/12/31 11:26:54;;;;;;;;;;;;;;;;;;5071377;28;19928;-90
2023/12/31 11:29:20;;;;;;;;;;;;;;;;;;5109025;27;19928;-91
2023/12/31 11:31:46;;;;;;;;;;;;;;;;;;5077139;28;19957;-92
2023/12/31 11:34:12;;;;;;;;;;;;;;;;;;5069407;28;20203;-88
2023/12/31 11:36:38;;;;;;;;;;;;;;;;;;5103674;28;19951;-90
2023/12/31 11:39:14;;;;;;;;;;;;;;;;;;5122419;27;19992;-89
2023/12/31 11:41:41;;;;;;;;;;;;;;;;;;5108070;28;19920;-93
2023/12/31 11:44:10;;;;;;;;;;;;;;;;;;5106893;27;19930;-90
2023/12/31 11:46:39;;;;;;;;;;;;;;;;;;5079561;28;19928;-89
2023/12/31 11:49:05;;;;;;;;;;;;;;;;;;5129688;27;19930;-88
2023/12/31 11:51:31;;;;;;;;;;;;;;;;;;5102349;27;20041;-90
2023/12/31 11:53:59;;;;;;;;;;;;;;;;;;5082819;28;20002;-89
2023/12/31 11:56:26;;;;;;;;;;;;;;;;;;5095744;28;19982;-88
2023/12/31 11:58:52;;;;;;;;;;;;;;;;;;5079059;28;20258;-91
2023/12/31 12:01:18;;;;;;;;;;;;;;;;;;5079784;28;20314;-90
2023/12/31 12:03:46;;;;;;;;;;;;;;;;;;5097816;28;19920;-90
2023/12/31 12:06:12;;;;;;;;;;;;;;;;;;5115562;28;19920;-93
2023/12/31 12:08:38;;;;;;;;;;;;;;;;;;5069313;28;19931;-90
2023/12/31 12:11:04;;;;;;;;;;;;;;;;;;5071601;28;19959;-90
2023/12/31 12:13:30;;;;;;;;;;;;;;;;;;5108230;28;19924;-90
2023/12/31 12:15:56;;;;;;;;;;;;;;;;;;5068448;28;19923;-87
2023/12/31 12:18:22;;;;;;;;;;;;;;;;;;5106642;28;19919;-87
2023/12/31 12:20:48;;;;;;;;;;;;;;;;;;5105148;28;20402;-87
2023/12/31 12:23:14;;;;;;;;;;;;;;;;;;5105849;28;19924;-93
2023/12/31 12:25:42;;;;;;;;;;;;;;;;;;5109126;28;19941;-91
2023/12/31 12:28:08;;;;;;;;;;;;;;;;;;5098991;28;19931;-91
2023/12/31 12:30:34;;;;;;;;;;;;;;;;;;5102303;28;19942;-84
2023/12/31 12:33:00;;;;;;;;;;;;;;;;;;5080465;28;20350;-88
2023/12/31 12:35:26;;;;;;;;;;;;;;;;;;5109645;28;19985;-90
2023/12/31 12:37:52;;;;;;;;;;;;;;;;;;5076942;28;19920;-90
2023/12/31 12:40:19;;;;;;;;;;;;;;;;;;5103321;28;19920;-89
2023/12/31 12:42:45;;;;;;;;;;;;;;;;;;5071936;28;19919;-88
2023/12/31 12:45:11;;;;;;;;;;;;;;;;;;5102937;28;20373;-89
2023/12/31 12:47:37;;;;;;;;;;;;;;;;;;5116090;28;20444;-89
2023/12/31 12:50:03;;;;;;;;;;;;;;;;;;5080926;28;19920;-90
2023/12/31 12:52:30;;;;;;;;;;;;;;;;;;5105780;28;19989;-88
2023/12/31 12:54:56;;;;;;;;;;;9.40;99.90;;;;;;5094553;28;20920;-90
2023/12/31 12:57:22;;;;;;;;;;;9.30;99.90;;;;;;5048260;28;20018;-91
2023/12/31 12:59:47;;;;;;;;;;;9.40;99.90;;;;;;5066571;28;20265;-90
2023/12/31 13:02:13;;;;;;;;;;;9.50;99.90;;;;;;5076675;28;19924;-87
2023/12/31 13:04:39;;;;;;;;;;;8.60;99.90;;;;;;5080938;28;19962;-89
2023/12/31 13:07:06;;;;;;;;;;;9.50;99.90;;;;;;5073504;28;19920;-90
2023/12/31 13:09:35;;;;;;;;;;;8.40;99.90;;;;;;5085236;28;19944;-89
2023/12/31 13:12:01;;;;;;;;;;;9.50;99.90;;;;;;5061049;28;19924;-90
2023/12/31 13:14:27;;;;;;;;;;;9.50;99.90;;;;;;5087295;28;19948;-89
2023/12/31 13:16:52;;;;;;;;;;;9.40;99.90;;;;;;5067729;28;19966;-87
2023/12/31 13:19:19;;;;;;;;;;;9.40;99.90;;;;;;5060212;28;19950;-91
2023/12/31 13:21:45;;;;;;;;;;;9.30;99.90;;;;;;5098255;28;19920;-89
2023/12/31 13:24:11;;;;;;;;;;;9.30;99.90;;;;;;5095177;28;20010;-89
2023/12/31 13:26:36;;;;;;;;;;;9.30;99.90;;;;;;5080462;28;20367;-88
2023/12/31 13:29:02;;;;;;;;;;;9.20;99.90;;;;;;5071964;28;19924;-89
2023/12/31 13:31:29;;;;;;;;;;;9.20;99.90;;;;;;5059859;28;19920;-87
2023/12/31 13:33:54;;;;;;;;;;;9.10;99.90;;;;;;5088688;28;19977;-89
2023/12/31 13:36:20;;;;;;;;;;;9.10;99.90;;;;;;5093597;28;19927;-89
2023/12/31 13:38:46;;;;;;;;;;;9.00;99.90;;;;;;5074140;28;20010;-86
2023/12/31 13:41:11;;;;;;;;;;;9.00;99.90;;;;;;5085524;28;19959;-87
2023/12/31 13:43:37;;;;;;;;;;;9.00;99.90;;;;;;5069447;28;19928;-86
2023/12/31 13:46:03;;;;;;;;;;;9.00;99.90;;;;;;5075280;28;19931;-85
2023/12/31 13:48:29;;;;;;;;;;;8.90;99.90;;;;;;5089070;28;20028;-90
2023/12/31 13:50:54;;;;;;;;;;;8.80;99.90;;;;;;5058341;28;19920;-90
2023/12/31 13:53:20;;;;;;;;;;;8.80;99.90;;;;;;5065599;28;20376;-85
2023/12/31 13:55:46;;;;;;;;;;;8.70;99.90;;;;;;5069772;28;20238;-88
2023/12/31 13:58:11;;;;;;;;;;;8.50;99.90;;;;;;5075852;28;20369;-89
2023/12/31 14:00:38;;;;;;;;;;;8.40;99.90;;;;;;5054574;28;19920;-87
2023/12/31 14:03:04;;;;;;;;;;;8.30;99.90;;;;;;5068431;28;20354;-89
2023/12/31 14:05:31;;;;;;;;;;;8.30;99.90;;;;;;5082868;28;19920;-88
2023/12/31 14:07:56;;;;;;;;;;;8.20;99.90;;;;;;5082595;28;20014;-88
2023/12/31 14:10:22;;;;;;;;;;;8.10;99.90;;;;;;5087718;28;20027;-88
2023/12/31 14:12:48;;;;;;;;;;;8.10;99.90;;;;;;5074016;28;19967;-89
2023/12/31 14:15:14;;;;;;;;;;;7.50;99.90;;;;;;5077059;28;20789;-89
2023/12/31 14:17:39;;;;;;;;;;;8.20;99.90;;;;;;5094554;27;19953;-87
2023/12/31 14:20:05;;;;;;;;;;;8.20;99.90;;;;;;5068890;28;19930;-88
2023/12/31 14:22:31;;;;;;;;;;;8.20;99.90;;;;;;5058398;28;19928;-89
2023/12/31 14:24:56;;;;;;;;;;;8.20;99.90;;;;;;5088989;28;20268;-87
2023/12/31 14:27:22;;;;;;;;;;;8.20;99.90;;;;;;5060484;28;20233;-87
2023/12/31 14:29:49;;;;;;;;;;;;;;;;;;5074410;28;19974;-88
2023/12/31 14:32:15;;;;;;;;;;;;;;;;;;5115674;27;19924;-89
2023/12/31 14:34:41;;;;;;;;;;;;;;;;;;5106791;28;20459;-84
2023/12/31 14:37:07;;;;;;;;;;;;;;;;;;5090257;28;19924;-87
2023/12/31 14:39:33;;;;;;;;;;;;;;;;;;5110268;28;20007;-89
2023/12/31 14:41:59;;;;;;;;;;;;;;;;;;5107940;28;19985;-92
2023/12/31 14:44:25;;;;;;;;;;;;;;;;;;5102103;28;19920;-89
2023/12/31 14:46:51;;;;;;;;;;;;;;;;;;5101269;28;19959;-85
2023/12/31 14:49:17;;;;;;;;;;;;;;;;;;5123879;27;19928;-90